Time;durP1;ratioP1;P1;durP2;ratioP2;P2;SDS_P1;SDS_P2;PMS_P1;PMS_P2;Temp;Humidity;BMP_temperature;BMP_pressure;BME280_temperature;BME280_humidity;BME280_pressure;Samples;Min_cycle;Max_cycle;Signal;HPM_P1;HPM_P2
2022/03/18 00:02:58;;;;;;;12.85;3.80;;;;;;;;;;5057720;28;20044;-83
2022/03/18 00:05:26;;;;;;;17.60;3.90;;;;;;;;;;5064695;28;20816;-83
2022/03/18 00:07:54;;;;;;;17.67;3.92;;;;;;;;;;5050062;28;20055;-83
2022/03/18 00:10:23;;;;;;;10.93;3.58;;;;;;;;;;5063772;28;20033;-83
2022/03/18 00:12:53;;;;;;;13.15;4.03;;;;;;;;;;5042548;28;20411;-83
2022/03/18 00:15:28;;;;;;;17.60;4.03;;;;;;;;;;5051712;28;20063;-83
2022/03/18 00:17:56;;;;;;;11.05;3.70;;;;;;;;;;5051064;28;20436;-83
2022/03/18 00:20:24;;;;;;;10.75;3.88;;;;;;;;;;5041233;28;20047;-83
2022/03/18 00:22:52;;;;;;;11.50;3.45;;;;;;;;;;5018681;28;20519;-83
2022/03/18 00:25:26;;;;;;;10.05;3.72;;;;;;;;;;5037149;28;20037;-83
2022/03/18 00:28:03;;;;;;;13.32;4.40;;;;;;;;;;5016416;28;20082;-83
2022/03/18 00:30:30;;;;;;;17.23;3.80;;;;;;;;;;5005951;28;20041;-83
2022/03/18 00:32:58;;;;;;;11.88;4.10;;;;;;;;;;5000336;28;20045;-83
2022/03/18 00:35:37;;;;;;;10.55;3.78;;;;;;;;;;5054569;28;20041;-83
2022/03/18 00:38:14;;;;;;;11.18;3.88;;;;;;;;;;5013684;28;20042;-83
2022/03/18 00:40:44;;;;;;;25.25;4.57;;;;;;;;;;5033950;28;20769;-84
2022/03/18 00:43:24;;;;;;;12.88;4.38;;;;;;;;;;5034117;28;20103;-83
2022/03/18 00:46:11;;;;;;;9.57;4.00;;;;;;;;;;4990836;28;20037;-83
2022/03/18 00:54:31;;;;;;;18.75;5.13;;;;;;;;;;5081302;28;20736;-83
2022/03/18 00:57:13;;;;;;;11.60;3.90;;;;;;;;;;5073297;28;20143;-83
2022/03/18 00:59:40;;;;;;;15.02;4.70;;;;;;;;;;5043907;28;20044;-83
2022/03/18 01:02:08;;;;;;;13.23;4.25;;;;;;;;;;5072324;28;20065;-83
2022/03/18 01:04:41;;;;;;;15.02;4.68;;;;;;;;;;5059858;28;20052;-83
2022/03/18 01:07:22;;;;;;;19.05;4.43;;;;;;;;;;5009893;28;20041;-83
2022/03/18 01:09:50;;;;;;;11.73;4.93;;;;;;;;;;5076244;28;20488;-83
2022/03/18 01:12:18;;;;;;;12.75;4.50;;;;;;;;;;5069474;28;20139;-83
2022/03/18 01:14:52;;;;;;;15.40;4.15;;;;;;;;;;5031998;28;20071;-83
2022/03/18 01:17:40;;;;;;;14.25;4.88;;;;;;;;;;5068699;28;20064;-83
2022/03/18 01:20:08;;;;;;;20.63;4.35;;;;;;;;;;5056852;28;20076;-83
2022/03/18 01:22:37;;;;;;;9.40;4.70;;;;;;;;;;5072450;28;20043;-83
2022/03/18 01:25:17;;;;;;;12.10;4.40;;;;;;;;;;5040048;28;20041;-83
2022/03/18 01:28:06;;;;;;;18.10;4.35;;;;;;;;;;5045223;28;20103;-83
2022/03/18 01:30:34;;;;;;;15.80;4.45;;;;;;;;;;5074420;28;20043;-83
2022/03/18 01:33:05;;;;;;;14.57;5.10;;;;;;;;;;5041928;28;20037;-83
2022/03/18 01:35:37;;;;;;;16.27;4.90;;;;;;;;;;5072339;28;20119;-84
2022/03/18 01:38:22;;;;;;;13.68;4.30;;;;;;;;;;5046986;28;20159;-83
2022/03/18 01:40:51;;;;;;;19.02;4.72;;;;;;;;;;5073365;28;20045;-83
2022/03/18 01:43:25;;;;;;;13.38;4.63;;;;;;;;;;5063176;28;20032;-83
2022/03/18 01:46:33;;;;;;;8.52;4.00;;;;;;;;;;5076326;28;20086;-83
2022/03/18 01:49:15;;;;;;;16.65;5.13;;;;;;;;;;5037578;28;20048;-83
2022/03/18 01:51:45;;;;;;;14.20;4.10;;;;;;;;;;5066900;28;20090;-83
2022/03/18 01:57:08;;;;;;;8.25;3.60;;;;;;;;;;5049961;28;20356;-83
2022/03/18 01:59:36;;;;;;;12.40;4.68;;;;;;;;;;5068112;28;20067;-83
2022/03/18 02:02:04;;;;;;;13.57;4.35;;;;;;;;;;5066742;28;20044;-83
2022/03/18 02:04:39;;;;;;;10.45;4.18;;;;;;;;;;5068943;28;20087;-82
2022/03/18 02:07:21;;;;;;;10.30;4.13;;;;;;;;;;5044851;28;20044;-83
2022/03/18 02:09:48;;;;;;;13.93;4.63;;;;;;;;;;5054130;28;20060;-83
2022/03/18 02:12:16;;;;;;;17.38;4.72;;;;;;;;;;5038751;28;20052;-83
2022/03/18 02:14:49;;;;;;;11.18;4.68;;;;;;;;;;5052521;28;20044;-83
2022/03/18 02:17:20;;;;;;;13.20;4.75;;;;;;;;;;5037627;28;20516;-83
2022/03/18 02:19:48;;;;;;;10.30;3.50;;;;;;;;;;5072977;28;20511;-83
2022/03/18 02:22:25;;;;;;;14.40;4.82;;;;;;;;;;5055433;28;20075;-83
2022/03/18 02:24:55;;;;;;;14.93;4.05;;;;;;;;;;5039979;28;20053;-83
2022/03/18 02:27:28;;;;;;;9.50;3.88;;;;;;;;;;5038347;28;20599;-83
2022/03/18 02:29:56;;;;;;;7.15;3.50;;;;;;;;;;5064359;28;20074;-83
2022/03/18 02:32:24;;;;;;;12.52;3.58;;;;;;;;;;5037109;28;20056;-83
2022/03/18 02:34:57;;;;;;;12.05;3.80;;;;;;;;;;5052963;28;20044;-82
2022/03/18 02:37:30;;;;;;;12.52;3.40;;;;;;;;;;5056800;28;20491;-82
2022/03/18 02:39:59;;;;;;;14.57;4.32;;;;;;;;;;5071013;28;20138;-83
2022/03/18 02:42:26;;;;;;;14.95;4.18;;;;;;;;;;5066369;28;20060;-82
2022/03/18 02:45:04;;;;;;;19.38;4.60;;;;;;;;;;5056511;28;20071;-82
2022/03/18 02:47:34;;;;;;;12.27;4.13;;;;;;;;;;5044090;28;20054;-83
2022/03/18 02:50:02;;;;;;;12.32;4.05;;;;;;;;;;5069681;28;20040;-83
2022/03/18 02:52:30;;;;;;;15.25;4.10;;;;;;;;;;5055244;28;20047;-82
2022/03/18 02:54:59;;;;;;;13.07;3.40;;;;;;;;;;5073728;28;20109;-83
2022/03/18 02:57:38;;;;;;;14.55;3.67;;;;;;;;;;5057147;28;20048;-83
2022/03/18 03:00:07;;;;;;;9.52;3.58;;;;;;;;;;5056738;28;20071;-83
2022/03/18 03:02:34;;;;;;;12.32;3.72;;;;;;;;;;5064972;28;20063;-83
2022/03/18 03:08:01;;;;;;;9.38;3.63;;;;;;;;;;5070398;28;20048;-83
2022/03/18 03:10:34;;;;;;;10.70;3.90;;;;;;;;;;5074452;28;20094;-83
2022/03/18 03:13:10;;;;;;;10.10;3.90;;;;;;;;;;5070508;28;20415;-83
2022/03/18 03:15:40;;;;;;;14.48;3.72;;;;;;;;;;5067852;28;20049;-83
2022/03/18 03:18:16;;;;;;;12.15;3.92;;;;;;;;;;5051886;28;20570;-83
2022/03/18 03:20:44;;;;;;;19.60;4.25;;;;;;;;;;5056642;28;20108;-83
2022/03/18 03:23:12;;;;;;;10.63;3.42;;;;;;;;;;5048586;28;20139;-83
2022/03/18 03:25:41;;;;;;;6.55;3.40;;;;;;;;;;5053791;28;20159;-83
2022/03/18 03:28:12;;;;;;;15.68;4.05;;;;;;;;;;5049373;28;20056;-82
2022/03/18 03:30:40;;;;;;;11.63;4.53;;;;;;;;;;5054079;28;20039;-83
2022/03/18 03:33:08;;;;;;;14.88;4.63;;;;;;;;;;5075777;28;20056;-83
2022/03/18 03:35:41;;;;;;;10.00;4.20;;;;;;;;;;5056244;28;20045;-82
2022/03/18 03:38:34;;;;;;;10.07;4.13;;;;;;;;;;5070208;28;20049;-83
2022/03/18 03:41:02;;;;;;;7.30;3.88;;;;;;;;;;5039207;28;20054;-83
2022/03/18 03:43:31;;;;;;;15.25;4.18;;;;;;;;;;5070838;28;20029;-82
2022/03/18 03:46:14;;;;;;;16.33;5.15;;;;;;;;;;5076166;28;20036;-83
2022/03/18 03:48:44;;;;;;;14.32;5.03;;;;;;;;;;5053557;28;20500;-82
2022/03/18 03:51:12;;;;;;;20.10;4.82;;;;;;;;;;5063691;28;20181;-83
2022/03/18 03:53:51;;;;;;;15.57;4.60;;;;;;;;;;5034583;28;20171;-82
2022/03/18 03:56:27;;;;;;;15.52;4.00;;;;;;;;;;5071714;28;20047;-82
2022/03/18 03:58:58;;;;;;;7.50;3.60;;;;;;;;;;5054451;28;20154;-82
2022/03/18 04:01:26;;;;;;;11.35;4.25;;;;;;;;;;5046068;28;20043;-83
2022/03/18 04:03:55;;;;;;;13.32;4.75;;;;;;;;;;5073781;28;20462;-82
2022/03/18 04:06:32;;;;;;;16.13;4.53;;;;;;;;;;5055658;28;20119;-82
2022/03/18 04:09:00;;;;;;;14.25;4.57;;;;;;;;;;5049092;28;20044;-83
2022/03/18 04:11:28;;;;;;;13.07;4.05;;;;;;;;;;5083088;28;20118;-82
2022/03/18 04:13:57;;;;;;;17.05;4.38;;;;;;;;;;5059295;28;20053;-82
2022/03/18 04:16:44;;;;;;;13.88;4.78;;;;;;;;;;5057770;28;20053;-82
2022/03/18 04:19:14;;;;;;;14.57;4.70;;;;;;;;;;5075083;28;20601;-82
2022/03/18 04:21:42;;;;;;;15.70;4.43;;;;;;;;;;5056358;28;20104;-82
2022/03/18 04:24:11;;;;;;;11.60;4.82;;;;;;;;;;5070966;28;20037;-82
2022/03/18 04:26:43;;;;;;;15.60;3.90;;;;;;;;;;5058599;28;20045;-82
2022/03/18 04:29:12;;;;;;;13.95;4.25;;;;;;;;;;5043499;28;20492;-82
2022/03/18 04:31:40;;;;;;;9.63;4.13;;;;;;;;;;5057016;28;20036;-82
2022/03/18 04:34:09;;;;;;;10.98;4.70;;;;;;;;;;5071169;28;20052;-82
2022/03/18 04:36:39;;;;;;;10.30;4.75;;;;;;;;;;5040721;28;20044;-82
2022/03/18 04:39:11;;;;;;;10.55;4.32;;;;;;;;;;5059074;28;20056;-83
2022/03/18 04:41:38;;;;;;;12.80;4.50;;;;;;;;;;5067071;28;20098;-82
2022/03/18 04:44:08;;;;;;;8.23;3.70;;;;;;;;;;5059569;28;20020;-82
2022/03/18 04:46:39;;;;;;;10.25;4.00;;;;;;;;;;5038044;28;20075;-82
2022/03/18 04:49:08;;;;;;;8.85;3.90;;;;;;;;;;5054861;28;20048;-82
2022/03/18 04:51:36;;;;;;;12.52;3.92;;;;;;;;;;5058059;28;20036;-83
2022/03/18 04:54:06;;;;;;;15.50;4.22;;;;;;;;;;5056443;28;20044;-83
2022/03/18 04:59:24;;;;;;;11.82;4.50;;;;;;;;;;5074159;28;20127;-82
2022/03/18 05:01:52;;;;;;;10.88;4.40;;;;;;;;;;5076005;28;20044;-82
2022/03/18 05:04:21;;;;;;;6.88;3.28;;;;;;;;;;5054190;28;20048;-82
2022/03/18 05:06:50;;;;;;;9.48;3.65;;;;;;;;;;5038757;28;20389;-82
2022/03/18 05:09:18;;;;;;;10.60;4.25;;;;;;;;;;5048991;28;20052;-82
2022/03/18 05:11:46;;;;;;;13.73;4.22;;;;;;;;;;5075156;28;20094;-82
2022/03/18 05:14:16;;;;;;;7.63;3.40;;;;;;;;;;5047966;28;20075;-82
2022/03/18 05:16:45;;;;;;;14.38;3.85;;;;;;;;;;5050771;28;20474;-82
2022/03/18 05:19:14;;;;;;;9.20;3.72;;;;;;;;;;5048378;28;20131;-82
2022/03/18 05:21:42;;;;;;;8.68;3.47;;;;;;;;;;5073030;28;20048;-83
2022/03/18 05:24:11;;;;;;;10.85;3.67;;;;;;;;;;5074876;28;20037;-83
2022/03/18 05:26:43;;;;;;;15.30;4.28;;;;;;;;;;5042003;28;20364;-82
2022/03/18 05:29:13;;;;;;;7.10;3.80;;;;;;;;;;5056992;28;20045;-83
2022/03/18 05:31:42;;;;;;;8.90;3.30;;;;;;;;;;5069378;28;20143;-83
2022/03/18 05:34:11;;;;;;;15.45;4.47;;;;;;;;;;5056470;28;20045;-82
2022/03/18 05:36:45;;;;;;;9.95;3.72;;;;;;;;;;5044078;28;20094;-83
2022/03/18 05:39:17;;;;;;;10.77;4.18;;;;;;;;;;5057531;28;20317;-83
2022/03/18 05:41:45;;;;;;;8.15;3.58;;;;;;;;;;5044749;28;20139;-82
2022/03/18 05:44:13;;;;;;;8.35;3.80;;;;;;;;;;5077527;28;20451;-82
2022/03/18 05:46:48;;;;;;;16.08;4.32;;;;;;;;;;5056418;28;20456;-82
2022/03/18 05:49:18;;;;;;;10.23;4.20;;;;;;;;;;5057608;28;20036;-83
2022/03/18 05:51:46;;;;;;;8.40;3.60;;;;;;;;;;5041908;28;20127;-82
2022/03/18 05:54:15;;;;;;;12.48;3.67;;;;;;;;;;5062399;28;20126;-83
2022/03/18 05:56:54;;;;;;;9.23;3.90;;;;;;;;;;5053257;28;20041;-82
2022/03/18 05:59:27;;;;;;;13.10;4.07;;;;;;;;;;5044010;28;20041;-82
2022/03/18 06:01:56;;;;;;;10.23;4.25;;;;;;;;;;5053854;28;20048;-82
2022/03/18 06:04:25;;;;;;;9.77;3.80;;;;;;;;;;5058126;28;20049;-82
2022/03/18 06:06:52;;;;;;;10.10;3.88;;;;;;;;;;5039864;28;20051;-82
2022/03/18 06:12:07;;;;;;;14.27;4.65;;;;;;;;;;5058436;28;20058;-82
2022/03/18 06:14:35;;;;;;;12.30;4.78;;;;;;;;;;5073488;28;20043;-82
2022/03/18 06:17:05;;;;;;;10.38;4.25;;;;;;;;;;5087657;28;20029;-82
2022/03/18 06:19:34;;;;;;;8.15;4.57;;;;;;;;;;5090535;28;20058;-82
2022/03/18 06:22:03;;;;;;;12.32;4.78;;;;;;;;;;5104080;28;20016;-83
2022/03/18 06:24:33;;;;;;;19.35;4.93;;;;;;;;;;5049540;28;20047;-82
2022/03/18 06:27:24;;;;;;;13.73;4.63;;;;;;;;;;5063806;28;20110;-83
2022/03/18 06:29:52;;;;;;;8.50;4.57;;;;;;;;;;5063676;28;20032;-84
2022/03/18 06:32:20;;;;;;;14.70;5.03;;;;;;;;;;5064710;28;20044;-83
2022/03/18 06:34:51;;;;;;;11.63;5.32;;;;;;;;;;5058088;28;20121;-83
2022/03/18 06:37:26;;;;;;;16.08;5.30;;;;;;;;;;5051828;28;20144;-83
2022/03/18 06:39:54;;;;;;;11.50;5.43;;;;;;;;;;5033757;28;20075;-83
2022/03/18 06:42:22;;;;;;;17.42;4.90;;;;;;;;;;5069912;28;20090;-83
2022/03/18 06:44:53;;;;;;;15.95;5.75;;;;;;;;;;5083262;28;20132;-82
2022/03/18 06:47:24;;;;;;;17.33;4.80;;;;;;;;;;5062966;28;20047;-84
2022/03/18 06:49:52;;;;;;;15.68;5.72;;;;;;;;;;5064957;28;20143;-84
2022/03/18 06:52:20;;;;;;;15.38;5.43;;;;;;;;;;5067899;28;20040;-84
2022/03/18 06:54:50;;;;;;;16.80;5.30;;;;;;;;;;5067787;28;20402;-83
2022/03/18 06:57:32;;;;;;;15.48;5.85;;;;;;;;;;5052289;28;20071;-84
2022/03/18 07:00:00;;;;;;;14.38;5.13;;;;;;;;;;5054079;28;20041;-83
2022/03/18 07:02:28;;;;;;;15.82;6.07;;;;;;;;;;5061131;28;20506;-83
2022/03/18 07:04:58;;;;;;;18.42;6.03;;;;;;;;;;5071168;28;20391;-83
2022/03/18 07:08:04;;;;;;;19.85;5.78;;;;;;;;;;5072831;28;20067;-83
2022/03/18 07:10:32;;;;;;;15.95;5.57;;;;;;;;;;5068919;28;20037;-83
2022/03/18 07:13:00;;;;;;;13.63;5.22;;;;;;;;;;5071017;28;20044;-83
2022/03/18 07:15:30;;;;;;;14.57;6.15;;;;;;;;;;5058732;28;20032;-83
2022/03/18 07:18:05;;;;;;;14.05;5.50;;;;;;;;;;5056800;28;20044;-83
2022/03/18 07:20:36;;;;;;;16.75;6.78;;;;;;;;;;5052010;28;20047;-83
2022/03/18 07:23:12;;;;;;;22.88;6.20;;;;;;;;;;5064593;28;20132;-83
2022/03/18 07:25:48;;;;;;;20.33;6.75;;;;;;;;;;5060629;28;20048;-83
2022/03/18 07:28:34;;;;;;;19.98;6.50;;;;;;;;;;5053887;28;20056;-84
2022/03/18 07:31:02;;;;;;;17.13;6.85;;;;;;;;;;5068318;28;20616;-83
2022/03/18 07:33:38;;;;;;;14.45;6.43;;;;;;;;;;5058298;28;20044;-84
2022/03/18 07:36:32;;;;;;;17.88;7.00;;;;;;;;;;5044724;28;20033;-83
2022/03/18 07:39:16;;;;;;;15.10;6.78;;;;;;;;;;5074004;28;20131;-83
2022/03/18 07:41:44;;;;;;;17.35;7.43;;;;;;;;;;5051475;28;20052;-82
2022/03/18 07:44:13;;;;;;;23.27;7.57;;;;;;;;;;5049663;28;20058;-82
2022/03/18 07:46:44;;;;;;;16.42;6.78;;;;;;;;;;5040741;28;20408;-83
2022/03/18 07:49:14;;;;;;;23.52;8.10;;;;;;;;;;5067182;28;20052;-83
2022/03/18 07:51:42;;;;;;;20.63;7.75;;;;;;;;;;5070897;28;20040;-83
2022/03/18 07:54:18;;;;;;;24.27;7.85;;;;;;;;;;5050217;28;20051;-83
2022/03/18 07:57:18;;;;;;;19.75;7.75;;;;;;;;;;5043387;28;20127;-83
2022/03/18 07:59:46;;;;;;;26.35;8.18;;;;;;;;;;5069484;28;20033;-83
2022/03/18 08:02:14;;;;;;;20.52;7.68;;;;;;;;;;5058387;28;20051;-83
2022/03/18 08:05:07;;;;;;;15.57;8.00;;;;;;;;;;5067567;28;20044;-83
2022/03/18 08:08:24;;;;;;;18.25;7.90;;;;;;;;;;5061469;28;20037;-84
2022/03/18 08:10:53;;;;;;;24.88;8.23;;;;;;;;;;5063597;28;20105;-84
2022/03/18 08:13:54;;;;;;;16.50;7.80;;;;;;;;;;5071225;28;20633;-84
2022/03/18 08:17:35;;;;;;;18.77;6.95;;;;;;;;;;5058421;28;20041;-84
2022/03/18 08:20:03;;;;;;;19.38;7.45;;;;;;;;;;5050539;28;20151;-84
2022/03/18 08:22:30;;;;;;;28.05;8.15;;;;;;;;;;5060060;28;20041;-84
2022/03/18 08:25:31;;;;;;;29.63;8.93;;;;;;;;;;5060528;28;20128;-84
2022/03/18 08:28:55;;;;;;;23.58;8.57;;;;;;;;;;5062237;23;20064;-79
2022/03/18 08:31:22;;;;;;;21.13;7.85;;;;;;;;;;5064064;28;20490;-80
2022/03/18 08:33:50;;;;;;;18.42;8.93;;;;;;;;;;5039087;28;20145;-78
2022/03/18 08:36:20;;;;;;;26.13;9.57;;;;;;;;;;5056944;28;20060;-81
2022/03/18 08:38:48;;;;;;;22.63;8.75;;;;;;;;;;5062976;28;20040;-81
2022/03/18 08:41:16;;;;;;;22.25;8.48;;;;;;;;;;5061925;28;20033;-80
2022/03/18 08:43:44;;;;;;;21.08;9.10;;;;;;;;;;5047192;28;20604;-80
2022/03/18 08:46:12;;;;;;;23.45;9.20;;;;;;;;;;5069565;28;20045;-80
2022/03/18 08:48:42;;;;;;;21.00;9.38;;;;;;;;;;5062081;28;20041;-79
2022/03/18 08:51:10;;;;;;;16.88;7.65;;;;;;;;;;5063910;28;20120;-80
2022/03/18 08:53:38;;;;;;;30.38;8.65;;;;;;;;;;5063351;28;20127;-80
2022/03/18 08:56:06;;;;;;;23.98;8.45;;;;;;;;;;5051624;28;20566;-80
2022/03/18 08:58:34;;;;;;;18.85;8.55;;;;;;;;;;5059779;28;20055;-80
2022/03/18 09:01:02;;;;;;;23.15;9.02;;;;;;;;;;5059885;28;20098;-79
2022/03/18 09:03:30;;;;;;;18.35;7.78;;;;;;;;;;5062740;28;20373;-80
2022/03/18 09:05:59;;;;;;;19.50;7.72;;;;;;;;;;5059566;28;20041;-80
2022/03/18 09:08:26;;;;;;;15.15;6.90;;;;;;;;;;5063963;28;20051;-79
2022/03/18 09:10:54;;;;;;;20.27;8.20;;;;;;;;;;5062183;28;20044;-80
2022/03/18 09:13:22;;;;;;;24.75;7.35;;;;;;;;;;5067065;28;20663;-80
2022/03/18 09:15:50;;;;;;;15.18;8.05;;;;;;;;;;5060808;28;20107;-79
2022/03/18 09:18:18;;;;;;;14.68;7.43;;;;;;;;;;5062959;28;20043;-79
2022/03/18 09:20:46;;;;;;;15.95;7.50;;;;;;;;;;5063174;28;20518;-80
2022/03/18 09:23:14;;;;;;;18.23;7.57;;;;;;;;;;5052488;28;20041;-80
2022/03/18 09:25:42;;;;;;;25.63;7.20;;;;;;;;;;5062804;28;20249;-80
2022/03/18 09:28:10;;;;;;;13.50;8.13;;;;;;;;;;5062844;28;20040;-79
2022/03/18 09:30:51;;;;;;;24.17;8.00;;;;;;;;;;5060123;28;20037;-82
2022/03/18 09:33:18;;;;;;;16.27;6.70;;;;;;;;;;5059033;28;20048;-80
2022/03/18 09:35:46;;;;;;;18.52;7.45;;;;;;;;;;5059976;28;20592;-80
2022/03/18 09:38:14;;;;;;;13.65;6.80;;;;;;;;;;5060247;28;20125;-81
2022/03/18 09:40:42;;;;;;;17.77;6.93;;;;;;;;;;5060245;28;20052;-79
2022/03/18 09:43:35;;;;;;;12.85;6.05;;;;;;;;;;5062371;28;20161;-80
2022/03/18 09:46:04;;;;;;;21.05;6.60;;;;;;;;;;5058936;28;20169;-80
2022/03/18 09:48:53;;;;;;;17.95;6.43;;;;;;;;;;5028728;28;20048;-79
2022/03/18 09:51:20;;;;;;;15.55;6.40;;;;;;;;;;5058280;28;20567;-79
2022/03/18 09:54:10;;;;;;;13.05;5.50;;;;;;;;;;5061287;28;20117;-80
2022/03/18 09:56:40;;;;;;;20.08;5.68;;;;;;;;;;5065309;28;20029;-80
2022/03/18 09:59:09;;;;;;;14.90;5.28;;;;;;;;;;5056338;28;20033;-79
2022/03/18 10:01:36;;;;;;;11.68;5.22;;;;;;;;;;5041276;28;20051;-79
2022/03/18 10:04:12;;;;;;;9.57;5.13;;;;;;;;;;5061972;28;20033;-80
2022/03/18 10:06:42;;;;;;;16.73;5.30;;;;;;;;;;5064305;28;20115;-80
2022/03/18 10:09:12;;;;;;;15.55;6.28;;;;;;;;;;5061163;28;20800;-80
2022/03/18 10:11:43;;;;;;;11.38;5.38;;;;;;;;;;5059430;28;20067;-80
2022/03/18 10:14:20;;;;;;;19.15;6.15;;;;;;;;;;5056852;28;20040;-80
2022/03/18 10:17:02;;;;;;;16.52;5.20;;;;;;;;;;5058720;28;20131;-80
2022/03/18 10:19:30;;;;;;;15.18;5.60;;;;;;;;;;5058254;28;20032;-79
2022/03/18 10:22:04;;;;;;;16.15;5.20;;;;;;;;;;5057929;28;20048;-79
2022/03/18 10:24:37;;;;;;;14.68;5.03;;;;;;;;;;5048456;28;20041;-79
2022/03/18 10:27:23;;;;;;;14.32;5.53;;;;;;;;;;5063414;28;20170;-80
2022/03/18 10:29:55;;;;;;;16.42;4.93;;;;;;;;;;5052977;28;20113;-79
2022/03/18 10:32:25;;;;;;;15.80;5.00;;;;;;;;;;5060215;28;20044;-79
2022/03/18 10:37:50;;;;;;;16.38;4.85;;;;;;;;;;5060407;28;20457;-79
2022/03/18 10:40:35;;;;;;;11.70;5.10;;;;;;;;;;5059718;28;20414;-80
2022/03/18 10:43:04;;;;;;;17.90;5.13;;;;;;;;;;5045643;28;20048;-80
2022/03/18 10:45:33;;;;;;;16.63;5.38;;;;;;;;;;5040107;28;20126;-79
2022/03/18 10:48:17;;;;;;;13.90;4.72;;;;;;;;;;5058460;28;20164;-79
2022/03/18 10:50:45;;;;;;;17.60;4.75;;;;;;;;;;5041168;28;20036;-80
2022/03/18 10:53:13;;;;;;;17.20;5.13;;;;;;;;;;5065367;28;20080;-80
2022/03/18 10:55:43;;;;;;;12.02;5.00;;;;;;;;;;5058473;28;20037;-80
2022/03/18 10:58:15;;;;;;;13.95;5.53;;;;;;;;;;5027059;28;20037;-79
2022/03/18 11:00:48;;;;;;;16.23;4.93;;;;;;;;;;5058868;28;21997;-80
2022/03/18 11:03:17;;;;;;;15.93;4.75;;;;;;;;;;5058464;28;20229;-79
2022/03/18 11:05:53;;;;;;;14.10;5.18;;;;;;;;;;5058434;28;20044;-80
2022/03/18 11:08:22;;;;;;;15.23;4.80;;;;;;;;;;5063458;28;20115;-80
2022/03/18 11:11:10;;;;;;;17.38;4.60;;;;;;;;;;5058435;28;20040;-80
2022/03/18 11:13:48;;;;;;;19.13;5.22;;;;;;;;;;5057004;28;20788;-80
2022/03/18 11:16:19;;;;;;;8.93;4.32;;;;;;;;;;5057551;28;20343;-79
2022/03/18 11:18:49;;;;;;;14.90;4.68;;;;;;;;;;5062310;28;20040;-79
2022/03/18 11:21:18;;;;;;;16.83;4.70;;;;;;;;;;5055219;28;20035;-79
2022/03/18 11:23:47;;;;;;;12.70;4.35;;;;;;;;;;5050882;28;20029;-80
2022/03/18 11:26:17;;;;;;;13.50;4.68;;;;;;;;;;5057015;28;20041;-79
2022/03/18 11:28:45;;;;;;;13.10;4.00;;;;;;;;;;5056715;28;20036;-80
2022/03/18 11:31:17;;;;;;;13.07;5.10;;;;;;;;;;5059522;28;20115;-80
2022/03/18 11:34:14;;;;;;;7.70;4.10;;;;;;;;;;5042334;28;20041;-79
2022/03/18 11:37:04;;;;;;;10.88;3.60;;;;;;;;;;5045322;28;20047;-80
2022/03/18 11:39:32;;;;;;;17.23;4.88;;;;;;;;;;5062508;28;20115;-80
2022/03/18 11:42:05;;;;;;;15.57;4.53;;;;;;;;;;5058677;28;20494;-79
2022/03/18 11:44:49;;;;;;;11.98;4.18;;;;;;;;;;5042809;28;20105;-80
2022/03/18 11:47:19;;;;;;;13.68;4.05;;;;;;;;;;5059179;28;20106;-80
2022/03/18 11:49:47;;;;;;;14.55;4.00;;;;;;;;;;5066586;28;20033;-80
2022/03/18 11:52:14;;;;;;;9.18;4.15;;;;;;;;;;5046673;28;20515;-80
2022/03/18 11:54:58;;;;;;;15.13;4.88;;;;;;;;;;5050473;28;20050;-81
2022/03/18 11:57:33;;;;;;;10.70;3.20;;;;;;;;;;5057783;28;20037;-79
2022/03/18 12:00:05;;;;;;;8.25;3.08;;;;;;;;;;5063912;28;20082;-80
2022/03/18 12:02:33;;;;;;;13.23;3.33;;;;;;;;;;5043786;28;20874;-80
2022/03/18 12:05:00;;;;;;;10.80;3.40;;;;;;;;;;5063523;28;20041;-80
2022/03/18 12:07:30;;;;;;;11.20;3.45;;;;;;;;;;5065017;28;20040;-79
2022/03/18 12:10:06;;;;;;;13.32;3.53;;;;;;;;;;5070913;28;20039;-80
2022/03/18 12:12:42;;;;;;;12.07;4.15;;;;;;;;;;5072506;28;20067;-80
2022/03/18 12:15:12;;;;;;;14.27;4.63;;;;;;;;;;5047600;28;20041;-81
2022/03/18 12:17:55;;;;;;;18.80;4.82;;;;;;;;;;5055546;28;20375;-79
2022/03/18 12:20:24;;;;;;;16.75;3.70;;;;;;;;;;5061291;28;20439;-80
2022/03/18 12:22:54;;;;;;;11.77;3.17;;;;;;;;;;5056400;28;20040;-81
2022/03/18 12:25:22;;;;;;;8.57;2.88;;;;;;;;;;5056082;28;20033;-80
2022/03/18 12:27:53;;;;;;;10.30;3.20;;;;;;;;;;5065758;28;20401;-79
2022/03/18 12:30:26;;;;;;;10.27;2.72;;;;;;;;;;5063289;28;20038;-79
2022/03/18 12:33:04;;;;;;;6.90;2.20;;;;;;;;;;5057472;28;20138;-81
2022/03/18 12:35:33;;;;;;;9.05;3.75;;;;;;;;;;5070268;28;20041;-81
2022/03/18 12:38:07;;;;;;;14.10;2.78;;;;;;;;;;5061901;28;20488;-81
2022/03/18 12:40:43;;;;;;;11.00;3.75;;;;;;;;;;5053481;28;20053;-81
2022/03/18 12:43:14;;;;;;;11.10;3.00;;;;;;;;;;5060722;28;20044;-82
2022/03/18 12:45:44;;;;;;;10.23;2.80;;;;;;;;;;5064467;28;20110;-82
2022/03/18 12:48:17;;;;;;;8.98;2.80;;;;;;;;;;5055796;28;20028;-81
2022/03/18 12:50:50;;;;;;;8.75;2.22;;;;;;;;;;5068930;28;20037;-82
2022/03/18 12:53:34;;;;;;;6.05;2.00;;;;;;;;;;5073501;28;20040;-82
2022/03/18 12:56:19;;;;;;;9.32;2.50;;;;;;;;;;5050030;28;20045;-81
2022/03/18 12:58:51;;;;;;;8.27;2.58;;;;;;;;;;5054695;28;20033;-81
2022/03/18 13:01:50;;;;;;;7.95;3.35;;;;;;;;;;5061165;28;20044;-81
2022/03/18 13:04:21;;;;;;;6.55;2.45;;;;;;;;;;5066951;28;20549;-81
2022/03/18 13:06:56;;;;;;;8.20;3.72;;;;;;;;;;5070205;28;20049;-81
2022/03/18 13:09:50;;;;;;;6.95;2.42;;;;;;;;;;5072142;28;20050;-80
2022/03/18 13:12:26;;;;;;;7.07;2.40;;;;;;;;;;5040231;28;20052;-80
2022/03/18 13:14:55;;;;;;;10.20;2.72;;;;;;;;;;5069648;28;20049;-81
2022/03/18 13:17:24;;;;;;;8.75;2.78;;;;;;;;;;5068161;28;20124;-82
2022/03/18 13:19:54;;;;;;;9.35;2.83;;;;;;;;;;5064423;28;20812;-81
2022/03/18 13:22:24;;;;;;;8.27;2.28;;;;;;;;;;5064741;28;20041;-81
2022/03/18 13:24:53;;;;;;;5.57;2.17;;;;;;;;;;5065193;28;20132;-82
2022/03/18 13:27:22;;;;;;;9.07;2.45;;;;;;;;;;5061477;28;20493;-81
2022/03/18 13:32:51;;;;;;;5.18;2.33;;;;;;;;;;5070597;28;20119;-81
2022/03/18 13:35:23;;;;;;;9.77;2.53;;;;;;;;;;5071349;28;20449;-82
2022/03/18 13:38:11;;;;;;;10.32;2.03;;;;;;;;;;5065372;28;20115;-82
2022/03/18 13:40:41;;;;;;;7.30;1.98;;;;;;;;;;5064776;28;21141;-80
2022/03/18 13:43:09;;;;;;;9.48;2.58;;;;;;;;;;5067209;28;20040;-80
2022/03/18 13:45:40;;;;;;;10.00;3.00;;;;;;;;;;5067881;28;20066;-81
2022/03/18 13:48:10;;;;;;;8.52;2.75;;;;;;;;;;5069032;28;20490;-82
2022/03/18 13:50:46;;;;;;;8.50;2.50;;;;;;;;;;5046820;28;20037;-83
2022/03/18 13:53:19;;;;;;;8.93;2.60;;;;;;;;;;5058378;28;20049;-81
2022/03/18 13:55:46;;;;;;;8.52;2.30;;;;;;;;;;5069553;28;20162;-82
2022/03/18 13:58:27;;;;;;;8.85;2.15;;;;;;;;;;5070843;28;20109;-83
2022/03/18 14:01:07;;;;;;;7.63;2.50;;;;;;;;;;5062773;28;20045;-81
2022/03/18 14:03:34;;;;;;;10.35;2.45;;;;;;;;;;5060297;28;20136;-81
2022/03/18 14:06:03;;;;;;;9.98;3.03;;;;;;;;;;5062998;28;20036;-81
2022/03/18 14:08:32;;;;;;;10.60;2.70;;;;;;;;;;5069478;28;20454;-81
2022/03/18 14:11:00;;;;;;;7.78;2.65;;;;;;;;;;5069718;28;20039;-82
2022/03/18 14:13:30;;;;;;;8.90;3.22;;;;;;;;;;5072193;28;20381;-82
2022/03/18 14:15:58;;;;;;;13.02;3.20;;;;;;;;;;5068125;28;20037;-82
2022/03/18 14:18:40;;;;;;;9.02;2.47;;;;;;;;;;5061047;28;20032;-82
2022/03/18 14:21:11;;;;;;;7.78;3.00;;;;;;;;;;5048207;28;20047;-82
2022/03/18 14:23:46;;;;;;;13.85;3.15;;;;;;;;;;5050997;28;20059;-81
2022/03/18 14:26:14;;;;;;;7.60;2.20;;;;;;;;;;5034735;28;20049;-81
2022/03/18 14:28:46;;;;;;;10.18;2.42;;;;;;;;;;5071278;28;20044;-82
2022/03/18 14:31:13;;;;;;;9.27;2.38;;;;;;;;;;5065929;28;20124;-82
2022/03/18 14:33:40;;;;;;;10.02;2.80;;;;;;;;;;5066988;28;20497;-81
2022/03/18 14:36:08;;;;;;;8.00;2.67;;;;;;;;;;5066004;28;20048;-80
2022/03/18 14:38:42;;;;;;;9.02;2.53;;;;;;;;;;5057847;28;20094;-80
2022/03/18 14:41:12;;;;;;;8.65;2.78;;;;;;;;;;5057205;28;20024;-80
2022/03/18 14:43:40;;;;;;;8.45;2.70;;;;;;;;;;5064764;28;20028;-81
2022/03/18 14:46:09;;;;;;;14.40;3.28;;;;;;;;;;5062832;28;20048;-81
2022/03/18 14:48:36;;;;;;;10.88;2.30;;;;;;;;;;5060354;28;20094;-81
2022/03/18 14:51:04;;;;;;;7.18;2.78;;;;;;;;;;5061422;28;20041;-84
2022/03/18 14:53:32;;;;;;;9.80;2.20;;;;;;;;;;5067932;28;20036;-79
2022/03/18 14:56:18;;;;;;;9.77;2.75;;;;;;;;;;5070218;28;20043;-80
2022/03/18 14:58:46;;;;;;;7.82;2.55;;;;;;;;;;5045029;28;20037;-80
2022/03/18 15:01:14;;;;;;;10.10;2.78;;;;;;;;;;5065060;28;20040;-81
2022/03/18 15:03:42;;;;;;;8.30;3.05;;;;;;;;;;5053553;28;20048;-80
2022/03/18 15:06:13;;;;;;;12.13;3.10;;;;;;;;;;5047552;28;20051;-80
2022/03/18 15:08:40;;;;;;;9.32;2.60;;;;;;;;;;5061452;28;20024;-78
2022/03/18 15:11:09;;;;;;;6.95;2.63;;;;;;;;;;5055815;28;21052;-79
2022/03/18 15:13:37;;;;;;;13.48;3.10;;;;;;;;;;5040438;28;20044;-79
2022/03/18 15:16:04;;;;;;;6.60;2.58;;;;;;;;;;5058222;28;20047;-79
2022/03/18 15:18:32;;;;;;;7.65;3.20;;;;;;;;;;5056978;28;20874;-80
2022/03/18 15:21:00;;;;;;;10.27;3.30;;;;;;;;;;5051662;28;20108;-79
2022/03/18 15:23:28;;;;;;;7.38;2.83;;;;;;;;;;5066389;28;20067;-80
2022/03/18 15:25:59;;;;;;;7.38;3.03;;;;;;;;;;5054055;28;20035;-79
2022/03/18 15:28:26;;;;;;;8.10;3.47;;;;;;;;;;5058543;28;20024;-81
2022/03/18 15:30:54;;;;;;;10.05;2.97;;;;;;;;;;5061329;28;20074;-80